»·PEaware :: KENT33 KSPS-KSPS

KENT33 :: KSPS-KSPS

FLIGHT INFORMATION

Flight Status: Arrived
Operator: Unknown
More flights by this operator :: More flights under this callsign
Pilot: 80 FTW ENJJPT (22981)
Aircraft: Unknown
(T-38)
More flights by this aircraft type
Origin: KSPS Sheppard AFB/Wichita Falls Mu
United States
Destination: KSPS Sheppard AFB/Wichita Falls Mu
United States
More flights between these airports :: More routes between these airports
Route: +
File this flight plan on PilotEdge
Remarks:
Altitude:
(Current/Filed)
16,000ft
Speed:
(Current/Filed)
0kts
Departed: 12-Aug-20 08:29 AM
Arrived: 12-Aug-20 09:06 AM
Distance/Time
Traveled:
0nm/0:37
Distance/Time
To Go:
Arrived

Flight Plot

Page will automatically refresh every two minutes.

Flight plan parsing failed; only flown route is shown


Map Options




Map Legend


Flown Route
Filed Route
Departure Airport
Arrival Airport
Navaid (VOR, NDB)
Fix

Horizontal Profiles

Position Reports

Time Latitude Longitude Heading Altitude Ground
Speed
12-Aug-20 08:27 34.006138 -98.497100 134 1027ft 2kts
12-Aug-20 08:28 33.967757 -98.478543 158 2650ft 310kts
12-Aug-20 08:29 33.885078 -98.475706 218 5310ft 320kts
12-Aug-20 08:30 33.862563 -98.581532 262 9561ft 342kts
12-Aug-20 08:31 33.850570 -98.708356 265 12781ft 431kts
12-Aug-20 08:32 33.836109 -98.851229 262 17736ft 439kts
12-Aug-20 08:33 33.812424 -98.999904 260 20996ft 462kts
12-Aug-20 08:34 33.846353 -99.122587 296 20862ft 492kts
12-Aug-20 08:35 33.846353 -99.122587 296 20862ft 492kts
12-Aug-20 08:36 33.866218 -99.168756 298 20671ft 478kts
12-Aug-20 08:37 33.929941 -99.287654 332 17555ft 381kts
12-Aug-20 08:38 33.970203 -99.226225 128 16177ft 392kts
12-Aug-20 08:39 33.898084 -99.127294 132 13404ft 388kts
12-Aug-20 08:40 33.831043 -99.043137 135 12723ft 318kts
12-Aug-20 08:41 33.841346 -98.948660 44 11845ft 346kts
12-Aug-20 08:42 33.920340 -98.871364 41 9742ft 335kts
12-Aug-20 08:43 33.972456 -98.794727 119 9561ft 287kts
12-Aug-20 08:44 33.897773 -98.765714 147 8877ft 324kts
12-Aug-20 08:45 33.827597 -98.701729 131 7886ft 306kts
12-Aug-20 08:46 33.775281 -98.617428 127 6314ft 328kts
12-Aug-20 08:47 33.754852 -98.524927 73 6036ft 288kts
12-Aug-20 08:48 33.772665 -98.430722 79 3539ft 270kts
12-Aug-20 08:49 33.824481 -98.412682 336 2362ft 220kts
12-Aug-20 08:50 33.881042 -98.440286 337 2481ft 199kts
12-Aug-20 08:51 33.928869 -98.463507 338 1927ft 181kts
12-Aug-20 08:52 33.976116 -98.486249 338 1027ft 165kts
12-Aug-20 08:53 34.041532 -98.516661 339 3824ft 272kts
12-Aug-20 08:54 34.056122 -98.602005 253 4924ft 329kts
12-Aug-20 08:55 33.983475 -98.664739 209 4967ft 332kts
12-Aug-20 08:56 33.898057 -98.676233 157 4774ft 320kts
12-Aug-20 08:57 33.817969 -98.633757 156 5153ft 321kts
12-Aug-20 08:58 33.739395 -98.590548 141 3043ft 290kts
12-Aug-20 08:59 33.740124 -98.507937 64 2734ft 278kts
12-Aug-20 09:00 33.772839 -98.425116 42 2489ft 262kts
12-Aug-20 09:01 33.834131 -98.423278 348 2415ft 223kts
12-Aug-20 09:02 33.895831 -98.448178 338 2528ft 203kts
12-Aug-20 09:03 33.943365 -98.470437 338 1615ft 178kts
12-Aug-20 09:04 33.984790 -98.490338 342 1027ft 72kts
12-Aug-20 09:05 33.986968 -98.492642 250 1027ft 0kts
12-Aug-20 09:06 33.986968 -98.492642 250 1027ft 0kts
12-Aug-20 09:07 33.986968 -98.492642 250 1027ft 0kts
12-Aug-20 09:08 33.986968 -98.492642 250 1027ft 0kts
12-Aug-20 09:09 33.986968 -98.492642 250 1027ft 0kts
12-Aug-20 09:10 33.986968 -98.492642 250 1027ft 0kts
12-Aug-20 09:11 33.986968 -98.492642 250 1027ft 0kts
12-Aug-20 09:12 33.986968 -98.492642 250 1027ft 0kts
12-Aug-20 09:13 33.986968 -98.492642 250 1027ft 0kts
12-Aug-20 09:14 33.986968 -98.492642 250 1027ft 0kts
12-Aug-20 09:15 33.986968 -98.492642 250 1027ft 0kts
12-Aug-20 09:16 33.986968 -98.492642 250 1027ft 0kts

Navigation Log

Ident Type
Flight plan parsing failed, navigation log unavailable